Terminal Aerodrome Forecast
Issued by NWS Tallahassee, FL

Home | Current Version | Previous Version | Text Only | Print | Product List | Glossary On
Versions: 1 2 3 4 5 6 7 8 9 10 11 12 13 14 15
877
FTUS42 KTAE 310523
TAFTLH
TAF
KTLH 310523Z 3106/0106 25003KT P6SM SCT250
     FM311500 17005KT P6SM SCT030
     FM311800 18007KT P6SM VCTS SCT040CB BKN100
     FM010000 VRB03KT P6SM SCT040 BKN100=

USA.gov is the U.S. government's official web portal to all federal, state and local government web resources and services.